Time;durP1;ratioP1;P1;durP2;ratioP2;P2;SDS_P1;SDS_P2;PMS_P1;PMS_P2;Temp;Humidity;BMP_temperature;BMP_pressure;BME280_temperature;BME280_humidity;BME280_pressure;Samples;Min_cycle;Max_cycle;Signal;HPM_P1;HPM_P2
2022/11/17 00:01:07;;;;;;;33.05;17.85;;;9.00;99.90;;;;;;5050653;28;20045;-65
2022/11/17 00:03:33;;;;;;;30.58;15.15;;;9.00;99.90;;;;;;5051193;28;20546;-65
2022/11/17 00:06:04;;;;;;;34.92;18.50;;;9.10;99.90;;;;;;5051470;28;20136;-65
2022/11/17 00:08:30;;;;;;;31.85;17.25;;;9.10;99.90;;;;;;5044822;28;20491;-65
2022/11/17 00:11:02;;;;;;;33.88;17.13;;;9.10;99.90;;;;;;5048947;28;20118;-65
2022/11/17 00:16:14;;;;;;;30.63;17.00;;;9.10;99.90;;;;;;5058267;22;20052;-66
2022/11/17 00:21:26;;;;;;;38.20;17.50;;;9.10;99.90;;;;;;5054000;28;20087;-64
2022/11/17 00:23:52;;;;;;;36.25;17.75;;;9.10;99.90;;;;;;5071318;28;20049;-63
2022/11/17 00:26:20;;;;;;;37.00;18.02;;;9.20;99.90;;;;;;5061215;28;20119;-64
2022/11/17 00:28:46;;;;;;;30.52;16.02;;;9.20;99.90;;;;;;5060503;28;20074;-64
2022/11/17 00:34:04;;;;;;;31.92;16.98;;;9.10;99.90;;;;;;5042371;28;20053;-64
2022/11/17 00:36:36;;;;;;;33.67;16.63;;;9.10;99.90;;;;;;5071260;28;20120;-64
2022/11/17 00:39:02;;;;;;;31.55;16.17;;;9.10;99.90;;;;;;5071234;28;20083;-64
2022/11/17 00:41:28;;;;;;;31.83;16.98;;;9.10;99.90;;;;;;5059499;28;20060;-64
2022/11/17 00:43:54;;;;;;;31.02;15.95;;;9.10;99.90;;;;;;5060882;28;20624;-64
2022/11/17 00:46:19;;;;;;;28.45;16.45;;;9.10;99.90;;;;;;5070867;28;20447;-64
2022/11/17 00:48:45;;;;;;;30.98;16.92;;;9.20;99.90;;;;;;5061569;28;20048;-64
2022/11/17 00:51:10;;;;;;;30.45;17.23;;;9.10;99.90;;;;;;5060456;28;20094;-64
2022/11/17 00:53:36;;;;;;;30.20;15.88;;;9.20;99.90;;;;;;5071451;28;20025;-64
2022/11/17 00:56:01;;;;;;;29.75;17.50;;;9.20;99.90;;;;;;5073358;28;20494;-64
2022/11/17 00:58:27;;;;;;;29.45;17.02;;;9.20;99.90;;;;;;5060804;28;20036;-64
2022/11/17 01:00:53;;;;;;;31.17;17.40;;;9.20;99.90;;;;;;5073878;28;20055;-64
2022/11/17 01:03:18;;;;;;;30.13;16.50;;;9.20;99.90;;;;;;5074233;28;20032;-64
2022/11/17 01:05:44;;;;;;;32.20;17.42;;;9.10;99.90;;;;;;5053305;28;20045;-64
2022/11/17 01:08:09;;;;;;;30.58;16.85;;;9.20;99.90;;;;;;5069403;28;20042;-64
2022/11/17 01:10:35;;;;;;;29.55;18.55;;;9.10;99.90;;;;;;5074604;28;20371;-65
2022/11/17 01:13:01;;;;;;;28.27;17.45;;;9.10;99.90;;;;;;5074106;28;20040;-64
2022/11/17 01:15:27;;;;;;;28.10;16.70;;;9.10;99.90;;;;;;5067370;28;20033;-65
2022/11/17 01:17:52;;;;;;;28.27;15.55;;;9.10;99.90;;;;;;5067402;28;20029;-65
2022/11/17 01:20:18;;;;;;;25.10;16.45;;;9.10;99.90;;;;;;5074080;28;20083;-65
2022/11/17 01:22:44;;;;;;;25.45;15.32;;;9.10;99.90;;;;;;5070900;28;20032;-65
2022/11/17 01:25:09;;;;;;;28.90;16.83;;;9.10;99.90;;;;;;5073469;28;20090;-65
2022/11/17 01:27:35;;;;;;;30.40;16.42;;;9.10;99.90;;;;;;5074164;28;20037;-64
2022/11/17 01:30:01;;;;;;;28.55;16.15;;;9.10;99.90;;;;;;5074342;28;20064;-65
2022/11/17 01:32:26;;;;;;;27.33;16.50;;;9.10;99.90;;;;;;5067571;28;20108;-65
2022/11/17 01:34:52;;;;;;;29.58;16.67;;;9.20;99.90;;;;;;5058840;28;20041;-65
2022/11/17 01:37:17;;;;;;;28.27;15.43;;;9.10;99.90;;;;;;5073538;28;20062;-65
2022/11/17 01:39:43;;;;;;;27.88;15.95;;;9.20;99.90;;;;;;5057325;28;20041;-65
2022/11/17 01:42:18;;;;;;;29.63;16.95;;;9.20;99.90;;;;;;5064751;28;20047;-65
2022/11/17 01:45:00;;;;;;;27.70;16.73;;;9.20;99.90;;;;;;5073926;28;20486;-64
2022/11/17 01:47:51;;;;;;;26.73;14.45;;;9.20;99.90;;;;;;5050995;28;20541;-65
2022/11/17 01:50:28;;;;;;;25.35;15.05;;;9.20;99.90;;;;;;5062906;28;20044;-65
2022/11/17 01:53:00;;;;;;;24.17;14.57;;;9.20;99.90;;;;;;5073512;28;20049;-64
2022/11/17 01:55:33;;;;;;;;;;;9.20;99.90;;;;;;5063911;28;20116;-64
2022/11/17 01:58:07;;;;;;;26.08;13.93;;;9.20;99.90;;;;;;5063340;28;19930;-65
2022/11/17 02:00:32;;;;;;;26.88;15.07;;;9.30;99.90;;;;;;5073413;28;20044;-64
2022/11/17 02:02:58;;;;;;;26.38;15.80;;;9.20;99.90;;;;;;5073425;28;20045;-65
2022/11/17 02:05:35;;;;;;;28.30;16.27;;;9.20;99.90;;;;;;5051343;28;20044;-65
2022/11/17 02:08:04;;;;;;;26.90;16.30;;;9.20;99.90;;;;;;5071961;28;20079;-64
2022/11/17 02:10:30;;;;;;;25.45;15.93;;;9.20;99.90;;;;;;5073752;28;20119;-65
2022/11/17 02:12:58;;;;;;;26.40;16.27;;;9.20;99.90;;;;;;5069160;28;20036;-65
2022/11/17 02:15:24;;;;;;;22.63;14.88;;;9.20;99.90;;;;;;5067774;28;20033;-64
2022/11/17 02:17:51;;;;;;;28.05;16.73;;;9.20;99.90;;;;;;5067538;28;20048;-64
2022/11/17 02:20:41;;;;;;;27.85;16.13;;;9.20;99.90;;;;;;5061253;28;20071;-64
2022/11/17 02:23:34;;;;;;;27.13;16.23;;;9.20;99.90;;;;;;5063624;28;20052;-64
2022/11/17 02:26:17;;;;;;;30.63;15.65;;;9.20;99.90;;;;;;5073501;28;20036;-64
2022/11/17 02:29:10;;;;;;;26.13;15.68;;;9.10;99.90;;;;;;5066425;28;20417;-64
2022/11/17 02:31:52;;;;;;;28.67;16.17;;;9.10;99.90;;;;;;5058289;28;20081;-64
2022/11/17 02:34:24;;;;;;;;;;;9.10;99.90;;;;;;5072906;28;20037;-64
2022/11/17 02:36:59;;;;;;;26.85;15.25;;;9.10;99.90;;;;;;5073251;28;19920;-64
2022/11/17 02:39:41;;;;;;;30.92;16.88;;;9.10;99.90;;;;;;5060542;28;20054;-65
2022/11/17 02:44:02;;;;;;;26.40;15.95;;;9.00;99.90;;;;;;5072195;28;20120;-64
2022/11/17 02:45:20;;;;;;;26.65;14.88;;;9.10;99.90;;;;;;5064893;28;20479;-65
2022/11/17 02:47:48;;;;;;;28.45;15.60;;;9.10;99.90;;;;;;5068761;28;20041;-64
2022/11/17 02:50:16;;;;;;;27.80;15.43;;;9.00;99.90;;;;;;5062573;28;20513;-64
2022/11/17 02:52:41;;;;;;;31.15;16.95;;;9.00;99.90;;;;;;5067721;28;20047;-65
2022/11/17 02:55:09;;;;;;;29.77;15.73;;;9.00;99.90;;;;;;5061713;28;20037;-64
2022/11/17 02:57:39;;;;;;;25.98;14.98;;;9.00;99.90;;;;;;5071991;28;20082;-65
2022/11/17 03:00:18;;;;;;;24.80;14.80;;;9.00;99.90;;;;;;5071346;28;20048;-65
2022/11/17 03:03:33;;;;;;;28.92;15.40;;;9.00;99.90;;;;;;5049324;28;20426;-65
2022/11/17 03:06:23;;;;;;;27.27;15.13;;;9.00;99.90;;;;;;4999101;28;20037;-65
2022/11/17 03:09:17;;;;;;;26.38;15.48;;;9.00;99.90;;;;;;5052454;28;20124;-64
2022/11/17 03:12:23;;;;;;;32.80;16.35;;;9.00;99.90;;;;;;5050353;28;20497;-65
2022/11/17 03:14:54;;;;;;;26.55;14.77;;;9.00;99.90;;;;;;5054119;28;20418;-65
2022/11/17 03:17:27;;;;;;;29.33;15.73;;;9.00;99.90;;;;;;5071736;28;20041;-65
2022/11/17 03:19:56;;;;;;;28.13;14.43;;;9.00;99.90;;;;;;5050764;28;20044;-65
2022/11/17 03:22:40;;;;;;;28.88;15.38;;;8.90;99.90;;;;;;5071542;28;20155;-65
2022/11/17 03:25:10;;;;;;;29.70;16.15;;;8.90;99.90;;;;;;5071880;28;20056;-64
2022/11/17 03:27:39;;;;;;;30.52;15.68;;;8.90;99.90;;;;;;5067596;28;20052;-63
2022/11/17 03:30:07;;;;;;;28.27;15.40;;;8.90;99.90;;;;;;5060854;28;20049;-64
2022/11/17 03:32:38;;;;;;;30.92;16.33;;;8.90;99.90;;;;;;5070977;28;20444;-64
2022/11/17 03:35:13;;;;;;;25.92;14.40;;;8.90;99.90;;;;;;5065700;28;20051;-65
2022/11/17 03:37:46;;;;;;;27.88;15.52;;;8.90;99.90;;;;;;5065078;28;20036;-65
2022/11/17 03:40:19;;;;;;;34.05;16.65;;;8.90;99.90;;;;;;5062151;28;20044;-64
2022/11/17 03:42:51;;;;;;;26.05;14.48;;;8.90;99.90;;;;;;5068536;28;20029;-65
2022/11/17 03:45:33;;;;;;;24.02;14.50;;;8.90;99.90;;;;;;5059034;28;20490;-64
2022/11/17 03:48:04;;;;;;;25.90;15.07;;;8.90;99.90;;;;;;5071143;28;20119;-64
2022/11/17 03:50:35;;;;;;;25.70;14.43;;;8.90;99.90;;;;;;5071751;28;20032;-65
2022/11/17 03:53:02;;;;;;;25.75;14.75;;;8.90;99.90;;;;;;5045219;28;20048;-65
2022/11/17 03:55:37;;;;;;;27.58;15.10;;;8.90;99.90;;;;;;5065725;28;20040;-64
2022/11/17 03:58:07;;;;;;;31.63;15.93;;;8.90;99.90;;;;;;5071537;28;20299;-64
2022/11/17 04:00:35;;;;;;;25.02;13.27;;;8.90;99.90;;;;;;5055598;28;20102;-64
2022/11/17 04:03:00;;;;;;;27.30;14.63;;;8.90;99.90;;;;;;5060755;28;20032;-63
2022/11/17 04:05:26;;;;;;;26.05;14.32;;;8.90;99.90;;;;;;5056808;28;20104;-63
2022/11/17 04:07:52;;;;;;;25.50;14.57;;;8.90;99.90;;;;;;5069059;28;20036;-64
2022/11/17 04:10:20;;;;;;;25.83;15.13;;;8.90;99.90;;;;;;5069473;28;20495;-64
2022/11/17 04:18:17;;;;;;;24.35;13.95;;;8.80;99.90;;;;;;5051805;28;20055;-63
2022/11/17 04:20:43;;;;;;;23.92;13.70;;;8.80;99.90;;;;;;5055061;28;20123;-63
2022/11/17 04:23:13;;;;;;;25.20;13.82;;;8.80;99.90;;;;;;5069768;28;20047;-64
2022/11/17 04:28:35;;;;;;;21.85;12.25;;;8.90;99.90;;;;;;5058665;28;20127;-64
2022/11/17 04:31:15;;;;;;;22.60;13.05;;;8.80;99.90;;;;;;5074780;28;20482;-63
2022/11/17 04:33:46;;;;;;;23.02;13.55;;;8.80;99.90;;;;;;5072275;28;20044;-64
2022/11/17 04:36:14;;;;;;;19.90;11.37;;;8.80;99.90;;;;;;5067661;28;20041;-64
2022/11/17 04:38:42;;;;;;;19.38;12.40;;;8.80;99.90;;;;;;5075152;28;20033;-63
2022/11/17 04:43:53;;;;;;;20.58;12.25;;;8.80;99.90;;;;;;5059549;28;20056;-63
2022/11/17 04:46:20;;;;;;;23.80;12.63;;;8.80;99.90;;;;;;5074017;28;20445;-65
2022/11/17 04:48:46;;;;;;;20.17;12.73;;;8.80;99.90;;;;;;5074897;28;20040;-66
2022/11/17 04:51:13;;;;;;;19.08;12.18;;;8.80;99.90;;;;;;5065783;28;20033;-66
2022/11/17 04:53:39;;;;;;;22.48;12.82;;;8.80;99.90;;;;;;5062743;28;20044;-65
2022/11/17 04:56:05;;;;;;;18.27;11.00;;;8.80;99.90;;;;;;5065125;28;20040;-65
2022/11/17 04:58:31;;;;;;;19.65;12.05;;;8.80;99.90;;;;;;5065406;28;20463;-65
2022/11/17 05:01:11;;;;;;;19.90;12.20;;;8.80;99.90;;;;;;5069369;28;20049;-65
2022/11/17 05:03:44;;;;;;;19.83;12.10;;;8.70;99.90;;;;;;5074957;28;20055;-64
2022/11/17 05:06:15;;;;;;;20.55;12.50;;;8.70;99.90;;;;;;5074309;28;20068;-65
2022/11/17 05:08:41;;;;;;;16.75;11.05;;;8.70;99.90;;;;;;5069855;28;20069;-64
2022/11/17 05:13:53;;;;;;;18.80;12.05;;;8.70;99.90;;;;;;5074711;28;20184;-65
2022/11/17 05:19:05;;;;;;;15.93;10.95;;;8.60;99.90;;;;;;5067460;28;20051;-64
2022/11/17 05:21:31;;;;;;;17.63;10.70;;;8.50;99.90;;;;;;5058273;28;20036;-64
2022/11/17 05:23:57;;;;;;;14.82;9.80;;;8.50;99.90;;;;;;5064019;28;20040;-64
2022/11/17 05:26:26;;;;;;;16.08;10.45;;;8.50;99.90;;;;;;5074326;28;20520;-64
2022/11/17 05:28:53;;;;;;;21.98;10.90;;;8.40;99.90;;;;;;5052485;28;20044;-64
2022/11/17 05:31:19;;;;;;;15.18;10.57;;;8.40;99.90;;;;;;5070161;28;20106;-64
2022/11/17 05:33:44;;;;;;;15.98;10.90;;;8.40;99.90;;;;;;5060788;28;20487;-64
2022/11/17 05:36:10;;;;;;;18.92;10.23;;;8.30;99.90;;;;;;5071525;28;20086;-64
2022/11/17 05:38:36;;;;;;;16.05;10.25;;;8.30;99.90;;;;;;5074459;28;20059;-65
2022/11/17 05:41:02;;;;;;;18.77;10.25;;;8.30;99.90;;;;;;5061594;28;20041;-65
2022/11/17 05:43:27;;;;;;;17.65;10.50;;;8.20;99.90;;;;;;5066005;28;20438;-65
2022/11/17 05:45:53;;;;;;;14.75;9.43;;;8.20;99.90;;;;;;5072940;28;20383;-65
2022/11/17 05:48:19;;;;;;;15.98;9.52;;;8.20;99.90;;;;;;5067561;28;20040;-64
2022/11/17 05:50:44;;;;;;;15.43;9.80;;;8.20;99.90;;;;;;5061132;28;20564;-65
2022/11/17 05:53:10;;;;;;;14.05;9.18;;;8.20;99.90;;;;;;5065934;28;20115;-65
2022/11/17 05:55:36;;;;;;;18.05;10.38;;;8.10;99.90;;;;;;5064967;28;20543;-64
2022/11/17 05:58:11;;;;;;;15.07;9.48;;;8.10;99.90;;;;;;5064000;28;20086;-64
2022/11/17 06:00:40;;;;;;;15.25;9.43;;;8.10;99.90;;;;;;5070612;28;20045;-64
2022/11/17 06:03:12;;;;;;;14.70;9.50;;;8.10;99.90;;;;;;5071247;28;20059;-64
2022/11/17 06:05:37;;;;;;;16.80;9.23;;;8.00;99.90;;;;;;5066435;28;20079;-64
2022/11/17 06:08:03;;;;;;;15.77;9.57;;;8.00;99.90;;;;;;5070157;28;20076;-64
2022/11/17 06:10:29;;;;;;;15.70;9.63;;;8.00;99.90;;;;;;5062615;28;20084;-64
2022/11/17 06:12:55;;;;;;;14.50;9.23;;;8.10;99.90;;;;;;5065749;28;20059;-65
2022/11/17 06:15:20;;;;;;;14.75;9.73;;;8.00;99.90;;;;;;5073241;28;20545;-63
2022/11/17 06:18:00;;;;;;;14.73;8.63;;;8.00;99.90;;;;;;5104374;22;20037;-63
2022/11/17 06:20:30;;;;;;;13.57;9.18;;;8.00;99.90;;;;;;5064393;28;20442;-63
2022/11/17 06:22:59;;;;;;;14.90;9.88;;;8.00;99.90;;;;;;5057875;28;20037;-63
2022/11/17 06:25:26;;;;;;;14.88;8.85;;;8.00;99.90;;;;;;5065112;28;20040;-63
2022/11/17 06:27:52;;;;;;;14.18;8.60;;;8.00;99.90;;;;;;5072805;28;20024;-63
2022/11/17 06:30:18;;;;;;;15.50;9.88;;;8.10;99.90;;;;;;5072913;28;20479;-64
2022/11/17 06:32:45;;;;;;;13.98;7.85;;;8.00;99.90;;;;;;5064740;28;20097;-65
2022/11/17 06:35:12;;;;;;;14.80;9.43;;;8.00;99.90;;;;;;5065961;28;20041;-63
2022/11/17 06:37:38;;;;;;;13.45;8.63;;;8.00;99.90;;;;;;5072743;28;20051;-64
2022/11/17 06:40:04;;;;;;;12.93;8.35;;;8.00;99.90;;;;;;5060097;28;20036;-63
2022/11/17 06:45:14;;;;;;;14.20;8.45;;;8.00;99.90;;;;;;5073119;28;20051;-64
2022/11/17 06:47:39;;;;;;;11.98;7.95;;;8.00;99.90;;;;;;5063951;28;20041;-63
2022/11/17 06:50:06;;;;;;;14.88;8.52;;;7.90;99.90;;;;;;5060397;28;20474;-64
2022/11/17 06:52:31;;;;;;;13.02;8.82;;;7.90;99.90;;;;;;5061303;28;20108;-64
2022/11/17 06:54:57;;;;;;;14.63;9.27;;;8.00;99.90;;;;;;5062092;28;20063;-64
2022/11/17 06:57:22;;;;;;;14.13;8.75;;;7.90;99.90;;;;;;5060940;28;20525;-63
2022/11/17 06:59:48;;;;;;;13.40;8.90;;;8.00;99.90;;;;;;5072286;28;20040;-63
2022/11/17 07:02:13;;;;;;;13.32;8.18;;;8.00;99.90;;;;;;5067793;28;20056;-63
2022/11/17 07:04:39;;;;;;;12.93;7.85;;;8.00;99.90;;;;;;5059159;28;20041;-63
2022/11/17 07:07:04;;;;;;;12.70;8.10;;;8.00;99.90;;;;;;5066566;28;20048;-64
2022/11/17 07:09:30;;;;;;;12.55;8.10;;;8.00;99.90;;;;;;5069181;28;20102;-64
2022/11/17 07:11:56;;;;;;;12.82;8.60;;;8.00;99.90;;;;;;5066227;28;20044;-64
2022/11/17 07:14:21;;;;;;;14.38;8.95;;;8.00;99.90;;;;;;5064508;28;20040;-64
2022/11/17 07:16:47;;;;;;;11.27;7.78;;;8.00;99.90;;;;;;5071007;28;20083;-63
2022/11/17 07:19:13;;;;;;;12.27;8.07;;;8.00;99.90;;;;;;5068047;28;20406;-64
2022/11/17 07:21:38;;;;;;;16.00;9.07;;;8.00;99.90;;;;;;5063141;28;20108;-63
2022/11/17 07:24:04;;;;;;;13.13;8.18;;;8.00;99.90;;;;;;5060437;28;20253;-64
2022/11/17 07:26:29;;;;;;;11.55;7.60;;;8.00;99.90;;;;;;5071369;28;20047;-63
2022/11/17 07:28:55;;;;;;;12.07;7.60;;;8.00;99.90;;;;;;5067649;28;20052;-64
2022/11/17 07:31:21;;;;;;;12.23;7.93;;;8.00;99.90;;;;;;5061295;28;20032;-66
2022/11/17 07:33:46;;;;;;;12.30;8.05;;;8.00;99.90;;;;;;5063348;28;20063;-63
2022/11/17 07:36:15;;;;;;;14.10;9.00;;;8.00;99.90;;;;;;5070395;28;20090;-64
2022/11/17 07:38:42;;;;;;;11.38;7.40;;;8.00;99.90;;;;;;5063320;28;20032;-64
2022/11/17 07:41:11;;;;;;;15.27;8.98;;;8.00;99.90;;;;;;5065901;28;20124;-64
2022/11/17 07:43:36;;;;;;;12.52;8.02;;;8.00;99.90;;;;;;5061097;28;20032;-63
2022/11/17 07:46:09;;;;;;;13.15;8.18;;;8.00;99.90;;;;;;5063278;28;20051;-63
2022/11/17 07:48:34;;;;;;;12.07;7.95;;;8.00;99.90;;;;;;5067990;28;20040;-64
2022/11/17 07:51:02;;;;;;;12.57;8.38;;;8.00;99.90;;;;;;5070998;28;20037;-64
2022/11/17 07:53:27;;;;;;;12.77;8.85;;;8.00;99.90;;;;;;5068872;28;20041;-64
2022/11/17 07:55:53;;;;;;;13.27;8.30;;;8.00;99.90;;;;;;5070726;28;20036;-64
2022/11/17 07:58:19;;;;;;;13.63;8.45;;;8.00;99.90;;;;;;5071220;28;20071;-64
2022/11/17 08:00:45;;;;;;;14.77;10.07;;;8.00;99.90;;;;;;5071585;28;20076;-64
2022/11/17 08:03:10;;;;;;;12.85;9.02;;;8.10;99.90;;;;;;5057543;28;20032;-64
2022/11/17 08:05:38;;;;;;;13.45;9.07;;;8.00;99.90;;;;;;5062631;28;20040;-64
2022/11/17 08:08:04;;;;;;;13.60;8.73;;;8.00;99.90;;;;;;5057829;28;20041;-63
2022/11/17 08:10:30;;;;;;;12.82;8.65;;;8.00;99.90;;;;;;5070778;28;20055;-64
2022/11/17 08:12:58;;;;;;;13.60;8.55;;;8.10;99.90;;;;;;5071262;28;20115;-64
2022/11/17 08:15:24;;;;;;;13.93;9.95;;;8.00;99.90;;;;;;5071240;28;20405;-64
2022/11/17 08:17:58;;;;;;;13.73;8.88;;;8.00;99.90;;;;;;5060600;28;20036;-64
2022/11/17 08:20:24;;;;;;;15.55;9.52;;;8.00;99.90;;;;;;5059660;28;20104;-64
2022/11/17 08:22:51;;;;;;;15.63;9.95;;;8.00;99.90;;;;;;5066227;28;20132;-64
2022/11/17 08:25:18;;;;;;;14.98;10.15;;;8.00;99.90;;;;;;5071270;28;20456;-64
2022/11/17 08:27:43;;;;;;;14.95;10.02;;;8.10;99.90;;;;;;5068703;28;20033;-64
2022/11/17 08:30:09;;;;;;;14.50;9.35;;;8.10;99.90;;;;;;5061658;28;20033;-64
2022/11/17 08:32:35;;;;;;;14.48;10.38;;;8.10;99.90;;;;;;5070902;28;20098;-64
2022/11/17 08:35:06;;;;;;;16.73;10.90;;;8.10;99.90;;;;;;5065689;28;20037;-64
2022/11/17 08:37:32;;;;;;;14.57;9.80;;;8.10;99.90;;;;;;5063738;28;20032;-63
2022/11/17 08:39:57;;;;;;;13.02;9.52;;;8.10;99.90;;;;;;5051211;28;20127;-64
2022/11/17 08:42:23;;;;;;;14.93;10.15;;;8.10;99.90;;;;;;5068561;28;20033;-64
2022/11/17 08:44:48;;;;;;;16.52;10.48;;;8.10;99.90;;;;;;5071055;28;20487;-64
2022/11/17 08:47:14;;;;;;;14.48;10.20;;;8.10;99.90;;;;;;5071038;28;20557;-64
2022/11/17 08:49:40;;;;;;;16.83;10.50;;;8.10;99.90;;;;;;5063606;28;20052;-64
2022/11/17 08:52:05;;;;;;;15.35;10.35;;;8.10;99.90;;;;;;5059394;28;20502;-64
2022/11/17 08:54:31;;;;;;;15.70;10.55;;;8.20;99.90;;;;;;5065156;28;20116;-63
2022/11/17 08:56:58;;;;;;;14.20;9.27;;;8.20;99.90;;;;;;5070733;28;20068;-64
2022/11/17 08:59:25;;;;;;;14.02;9.65;;;8.20;99.90;;;;;;5071020;28;20120;-64
2022/11/17 09:01:51;;;;;;;14.32;9.80;;;8.20;99.90;;;;;;5060132;28;20039;-63
2022/11/17 09:04:17;;;;;;;15.68;10.35;;;8.30;99.90;;;;;;5068465;28;20123;-63
2022/11/17 09:06:42;;;;;;;14.45;10.32;;;8.30;99.90;;;;;;5070517;28;20102;-63
2022/11/17 09:09:08;;;;;;;14.30;10.48;;;8.30;99.90;;;;;;5061573;28;20486;-64
2022/11/17 09:11:33;;;;;;;14.68;10.77;;;8.30;99.90;;;;;;5061805;28;20079;-64
2022/11/17 09:13:59;;;;;;;13.15;10.18;;;8.30;99.90;;;;;;5070478;28;20046;-64
2022/11/17 09:16:25;;;;;;;15.45;10.68;;;8.30;99.90;;;;;;5073953;28;20546;-64
2022/11/17 09:18:55;;;;;;;15.45;10.80;;;8.30;99.90;;;;;;5058797;28;20037;-64
2022/11/17 09:21:21;;;;;;;16.67;10.57;;;8.30;99.90;;;;;;5073278;28;20051;-64
2022/11/17 09:23:47;;;;;;;17.90;10.38;;;8.20;99.90;;;;;;5074029;28;20756;-63
2022/11/17 09:26:14;;;;;;;14.45;9.40;;;8.30;99.90;;;;;;5064615;28;20119;-63
2022/11/17 09:28:41;;;;;;;14.15;9.98;;;8.30;99.90;;;;;;5073548;28;20044;-64
2022/11/17 09:31:12;;;;;;;13.98;9.65;;;8.30;99.90;;;;;;5073881;28;20537;-64
2022/11/17 09:33:38;;;;;;;14.13;10.07;;;8.30;99.90;;;;;;5066290;28;20048;-63
2022/11/17 09:36:06;;;;;;;14.52;10.00;;;8.30;99.90;;;;;;5071690;28;20085;-64
2022/11/17 09:38:32;;;;;;;15.00;9.70;;;8.30;99.90;;;;;;5062086;28;20487;-63
2022/11/17 09:40:58;;;;;;;13.43;9.32;;;8.30;99.90;;;;;;5072354;28;20044;-64
2022/11/17 09:43:30;;;;;;;14.88;9.10;;;8.30;99.90;;;;;;5067804;28;20033;-64
2022/11/17 09:46:04;;;;;;;13.68;9.38;;;8.30;99.90;;;;;;5055848;28;20433;-63
2022/11/17 09:48:46;;;;;;;15.38;9.52;;;8.30;99.90;;;;;;5068313;28;20500;-64
2022/11/17 09:51:15;;;;;;;12.38;8.43;;;8.40;99.90;;;;;;5067685;28;20087;-64
2022/11/17 09:54:00;;;;;;;14.27;8.43;;;8.40;99.90;;;;;;5064732;28;20049;-63
2022/11/17 09:56:26;;;;;;;13.73;8.55;;;8.40;99.90;;;;;;5065911;28;20036;-64
2022/11/17 09:59:03;;;;;;;15.10;8.93;;;8.40;99.90;;;;;;5065879;28;20037;-63
2022/11/17 10:01:28;;;;;;;11.45;8.23;;;8.40;99.90;;;;;;5041151;28;20037;-64
2022/11/17 10:03:55;;;;;;;15.85;8.27;;;8.40;99.90;;;;;;5073360;28;20094;-64
2022/11/17 10:06:27;;;;;;;13.85;8.65;;;8.40;99.90;;;;;;5073543;28;20115;-64
2022/11/17 10:09:14;;;;;;;13.07;8.63;;;8.40;99.90;;;;;;5047393;28;20041;-64
2022/11/17 10:11:42;;;;;;;12.15;8.18;;;8.50;99.90;;;;;;5067197;28;20036;-64
2022/11/17 10:14:08;;;;;;;12.40;8.80;;;8.50;99.90;;;;;;5073468;28;20036;-64
2022/11/17 10:16:35;;;;;;;13.38;9.15;;;8.50;99.90;;;;;;5069262;28;20054;-64
2022/11/17 10:19:37;;;;;;;15.57;8.60;;;8.60;99.90;;;;;;5070252;28;20028;-64
2022/11/17 10:22:03;;;;;;;13.25;8.98;;;8.70;99.90;;;;;;5059970;28;20037;-64
2022/11/17 10:24:54;;;;;;;16.67;9.18;;;8.70;99.90;;;;;;5067077;28;20040;-63
2022/11/17 10:27:25;;;;;;;15.73;9.73;;;8.80;99.90;;;;;;5071403;28;20074;-63
2022/11/17 10:30:22;;;;;;;14.30;9.70;;;8.90;99.90;;;;;;5073068;28;20120;-64
2022/11/17 10:32:54;;;;;;;15.18;9.07;;;9.00;99.90;;;;;;5039349;28;20043;-64
2022/11/17 10:35:32;;;;;;;16.50;8.85;;;9.10;99.90;;;;;;5066854;28;20036;-63
2022/11/17 10:38:11;;;;;;;13.93;9.00;;;9.10;99.90;;;;;;5072917;28;20032;-63
2022/11/17 10:40:39;;;;;;;13.95;9.23;;;9.20;99.90;;;;;;5073031;28;20032;-64
2022/11/17 10:43:11;;;;;;;14.25;9.68;;;9.30;99.90;;;;;;5053425;28;20036;-64
2022/11/17 10:45:44;;;;;;;16.10;9.77;;;9.30;99.90;;;;;;5066490;28;20064;-64
2022/11/17 10:48:20;;;;;;;12.15;8.68;;;9.30;99.90;;;;;;5069507;28;20032;-63
2022/11/17 10:50:56;;;;;;;13.18;8.10;;;9.20;99.90;;;;;;5071312;28;20037;-64
2022/11/17 10:53:28;;;;;;;11.15;7.93;;;9.20;99.90;;;;;;5072249;28;20037;-64
2022/11/17 10:56:10;;;;;;;10.95;7.40;;;9.20;99.90;;;;;;5072997;28;20107;-64
2022/11/17 10:59:01;;;;;;;9.73;6.93;;;9.10;99.90;;;;;;5056492;28;20033;-64
2022/11/17 11:01:33;;;;;;;9.75;6.88;;;9.10;99.90;;;;;;5064276;28;20509;-64
2022/11/17 11:03:59;;;;;;;11.52;7.53;;;9.10;99.90;;;;;;5054587;28;20045;-64
2022/11/17 11:06:28;;;;;;;11.75;7.38;;;9.10;99.90;;;;;;5064230;28;20043;-64
2022/11/17 11:09:09;;;;;;;11.20;8.00;;;9.10;99.90;;;;;;5069402;28;20043;-63
2022/11/17 11:11:50;;;;;;;12.75;7.72;;;9.20;99.90;;;;;;5072079;28;20044;-63
2022/11/17 11:14:18;;;;;;;;;;;9.20;99.90;;;;;;5070182;28;20482;-63
2022/11/17 11:16:49;;;;;;;12.32;7.50;;;9.20;99.90;;;;;;5064095;28;19917;-64
2022/11/17 11:19:16;;;;;;;10.25;6.75;;;9.20;99.90;;;;;;5071965;28;20401;-64
2022/11/17 11:22:05;;;;;;;13.60;7.07;;;9.30;99.90;;;;;;5065787;28;20422;-64
2022/11/17 11:24:38;;;;;;;11.02;7.57;;;9.30;99.90;;;;;;5049578;28;20115;-64
2022/11/17 11:27:04;;;;;;;12.38;8.25;;;9.40;99.90;;;;;;5071701;28;20112;-64
2022/11/17 11:29:49;;;;;;;12.77;8.68;;;9.40;99.90;;;;;;5072217;28;20119;-64
2022/11/17 11:32:43;;;;;;;12.85;8.63;;;9.40;99.90;;;;;;5049528;28;20539;-64
2022/11/17 11:35:20;;;;;;;15.65;8.55;;;9.60;99.90;;;;;;5058933;28;20049;-66
2022/11/17 11:38:07;;;;;;;13.95;9.20;;;9.60;99.90;;;;;;5071263;28;20041;-64
2022/11/17 11:40:39;;;;;;;12.43;9.10;;;9.60;99.90;;;;;;5059093;28;20033;-64
2022/11/17 11:43:27;;;;;;;13.80;8.20;;;9.70;99.90;;;;;;5067523;28;20123;-64
2022/11/17 11:46:11;;;;;;;14.23;8.57;;;9.70;99.90;;;;;;5071856;28;20129;-64
2022/11/17 11:48:39;;;;;;;12.20;8.20;;;9.70;99.90;;;;;;5062165;28;20502;-64
2022/11/17 11:51:17;;;;;;;12.80;8.20;;;9.80;99.90;;;;;;5068307;28;20040;-64
2022/11/17 11:53:42;;;;;;;13.10;7.53;;;9.80;99.90;;;;;;5071774;28;20390;-64
2022/11/17 11:56:38;;;;;;;12.15;8.15;;;9.70;99.90;;;;;;5055460;28;20033;-66
2022/11/17 11:59:20;;;;;;;10.73;6.85;;;9.80;99.90;;;;;;5062813;28;20394;-65
2022/11/17 12:02:12;;;;;;;7.72;4.85;;;9.80;99.90;;;;;;5063820;28;20177;-65
2022/11/17 12:05:11;;;;;;;7.57;4.47;;;10.00;99.90;;;;;;5060893;28;20052;-67
2022/11/17 12:08:07;;;;;;;10.82;4.25;;;10.10;99.90;;;;;;5069724;28;20041;-67
2022/11/17 12:10:35;;;;;;;12.55;3.67;;;10.30;99.90;;;;;;5050639;28;20041;-65
2022/11/17 12:13:02;;;;;;;8.05;3.90;;;10.40;99.90;;;;;;5051033;28;20040;-66
2022/11/17 12:15:28;;;;;;;7.70;3.75;;;10.50;99.90;;;;;;5065555;28;20036;-65
2022/11/17 12:17:59;;;;;;;8.43;3.78;;;10.60;99.90;;;;;;5074225;22;20054;-65
2022/11/17 12:20:30;;;;;;;9.68;4.18;;;10.70;99.90;;;;;;5070919;28;20041;-65
2022/11/17 12:23:26;;;;;;;11.00;3.20;;;10.70;99.90;;;;;;5061119;28;20094;-65
2022/11/17 12:25:57;;;;;;;6.43;2.83;;;10.70;99.90;;;;;;5070892;28;20043;-65
2022/11/17 12:28:46;;;;;;;8.27;2.83;;;10.80;99.90;;;;;;5045460;28;20116;-63
2022/11/17 12:31:42;;;;;;;5.72;2.55;;;10.80;99.90;;;;;;5060977;28;20391;-66
2022/11/17 12:34:23;;;;;;;5.78;2.58;;;10.80;99.90;;;;;;5071146;28;20033;-66
2022/11/17 12:37:11;;;;;;;6.75;2.70;;;10.80;99.90;;;;;;5068698;28;20036;-65
2022/11/17 12:39:58;;;;;;;5.82;2.70;;;10.80;99.90;;;;;;5063088;28;20397;-66
2022/11/17 12:42:24;;;;;;;8.80;3.13;;;10.80;99.90;;;;;;5062618;28;20440;-65
2022/11/17 12:45:10;;;;;;;6.75;3.30;;;10.80;99.90;;;;;;5066120;28;20082;-64
2022/11/17 12:47:38;;;;;;;7.85;3.33;;;10.80;99.90;;;;;;5061203;28;20040;-64
2022/11/17 12:50:16;;;;;;;8.68;3.80;;;10.80;99.90;;;;;;5072191;28;20048;-65
2022/11/17 12:53:19;;;;;;;6.07;3.50;;;10.90;99.90;;;;;;5072071;28;20352;-64
2022/11/17 12:56:06;;;;;;;7.68;3.60;;;10.80;99.90;;;;;;5069041;28;20037;-65
2022/11/17 12:58:50;;;;;;;7.68;3.55;;;10.80;99.90;;;;;;5067735;28;20044;-65
2022/11/17 13:01:42;;;;;;;9.50;3.50;;;10.90;99.90;;;;;;5063387;28;20063;-65
2022/11/17 13:04:17;;;;;;;8.30;3.80;;;10.80;99.90;;;;;;5062345;28;20048;-64
2022/11/17 13:06:58;;;;;;;7.07;3.60;;;10.80;99.90;;;;;;5074371;28;20490;-65
2022/11/17 13:09:26;;;;;;;8.40;3.35;;;10.90;99.90;;;;;;5074823;28;20098;-65
2022/11/17 13:12:00;;;;;;;5.28;3.33;;;10.90;99.90;;;;;;5061769;28;20431;-64
2022/11/17 13:14:25;;;;;;;9.52;2.97;;;10.90;99.90;;;;;;5065992;28;20376;-64
2022/11/17 13:16:51;;;;;;;7.18;3.15;;;10.90;99.90;;;;;;5074516;28;20118;-64
2022/11/17 13:19:38;;;;;;;8.10;2.90;;;10.80;99.90;;;;;;5060837;28;20040;-64
2022/11/17 13:22:05;;;;;;;6.32;3.00;;;10.80;99.90;;;;;;5065479;28;20028;-62
2022/11/17 13:24:33;;;;;;;8.75;2.97;;;10.80;99.90;;;;;;5062042;28;20043;-65
2022/11/17 13:27:01;;;;;;;6.22;2.70;;;10.80;99.90;;;;;;5070427;28;20203;-64
2022/11/17 13:29:26;;;;;;;6.65;2.88;;;10.80;99.90;;;;;;5073111;28;20049;-65
2022/11/17 13:32:12;;;;;;;4.85;2.78;;;10.80;99.90;;;;;;5062839;28;20121;-65